Plymouth Union, Vermont
Current Conditions -  °F | °C
As of 4:15 AM on Wednesday 28 Jan 2015 (Local Time) from KRUT Reporting Station
Broken Clouds Broken Clouds  
Wind Chill: -12°   Ceiling: 12000
Heat Index:   Visibility: 10mi
Dew Point: -2°   Wind: 10mph
Humidity: 78%   Direction: 340°NNW
Pressure: 29.87"   Gusts: NA
Location:  43.5113°N, 72.7233°W
Report Text: KRUT 280915Z 34009KT 10SM BKN120 M16/M19 A2987 RMK AO1
Loading
Personal Weather Stations






























Interactive Weather Map New forecast layout! Learn more

10-Day Weather Forecast

Advertisements
Track Severe Weather on mobile